createdAt,value
2022-11-01T00:04:57.734Z,25.20
2022-11-01T00:10:20.478Z,25.35
2022-11-01T00:15:43.122Z,25.17
2022-11-01T00:21:05.265Z,24.52
2022-11-01T00:26:30.719Z,22.77
2022-11-01T00:31:52.926Z,22.80
2022-11-01T00:37:15.593Z,21.95
2022-11-01T00:42:37.748Z,19.65
2022-11-01T00:48:00.980Z,20.95
2022-11-01T00:53:25.028Z,19.62
2022-11-01T00:58:47.632Z,16.27
2022-11-01T01:04:09.883Z,17.27
2022-11-01T01:09:32.480Z,17.85
2022-11-01T01:14:55.015Z,16.30
2022-11-01T01:20:17.741Z,15.25
2022-11-01T01:25:40.188Z,16.37
2022-11-01T01:31:02.350Z,15.50
2022-11-01T01:36:25.095Z,15.72
2022-11-01T01:41:59.339Z,15.95
2022-11-01T01:47:30.440Z,15.63
2022-11-01T01:53:03.856Z,14.07
2022-11-01T01:58:31.148Z,14.20
2022-11-01T02:03:55.532Z,14.28
2022-11-01T02:09:20.367Z,14.25
2022-11-01T02:14:44.435Z,14.18
2022-11-01T02:20:46.036Z,14.70
2022-11-01T02:26:25.139Z,15.32
2022-11-01T02:32:24.157Z,15.40
2022-11-01T02:38:08.902Z,15.10
2022-11-01T02:43:45.072Z,15.23
2022-11-01T02:49:10.540Z,15.58
2022-11-01T02:54:49.067Z,15.20
2022-11-01T03:00:25.069Z,13.90
2022-11-01T03:05:58.039Z,13.70
2022-11-01T03:11:52.433Z,14.15
2022-11-01T03:17:25.877Z,13.32
2022-11-01T03:22:53.728Z,14.53
2022-11-01T03:28:26.363Z,13.80
2022-11-01T03:34:01.324Z,14.10
2022-11-01T03:39:31.298Z,14.58
2022-11-01T03:44:58.791Z,14.80
2022-11-01T03:50:40.614Z,13.85
2022-11-01T03:56:03.147Z,13.98
2022-11-01T04:01:26.729Z,13.90
2022-11-01T04:06:49.059Z,14.15
2022-11-01T04:12:11.286Z,13.68
2022-11-01T04:17:51.346Z,14.00
2022-11-01T04:23:14.707Z,15.70
2022-11-01T04:28:36.945Z,15.18
2022-11-01T04:33:59.121Z,17.12
2022-11-01T04:39:21.430Z,21.62
2022-11-01T04:44:43.661Z,20.40
2022-11-01T04:50:05.815Z,20.10
2022-11-01T04:55:28.415Z,22.02
2022-11-01T05:00:51.868Z,20.92
2022-11-01T05:06:14.463Z,21.12
2022-11-01T05:11:36.607Z,19.67
2022-11-01T05:17:00.878Z,21.40
2022-11-01T05:22:23.777Z,21.25
2022-11-01T05:27:45.916Z,18.25
2022-11-01T05:33:09.907Z,17.02
2022-11-01T05:38:32.118Z,17.10
2022-11-01T05:43:54.282Z,16.48
2022-11-01T05:49:16.973Z,15.70
2022-11-01T05:54:39.126Z,16.52
2022-11-01T06:00:01.271Z,17.55
2022-11-01T06:05:23.682Z,17.92
2022-11-01T06:10:49.180Z,18.62
2022-11-01T06:16:14.125Z,16.87
2022-11-01T06:21:36.272Z,15.18
2022-11-01T06:26:58.406Z,14.15
2022-11-01T06:32:22.482Z,15.25
2022-11-01T06:37:45.188Z,14.93
2022-11-01T06:43:09.612Z,15.03
2022-11-01T06:48:31.775Z,14.73
2022-11-01T06:53:53.903Z,14.33
2022-11-01T06:59:17.092Z,15.00
2022-11-01T07:04:39.300Z,13.65
2022-11-01T07:10:01.865Z,13.98
2022-11-01T07:15:24.947Z,13.80
2022-11-01T07:20:49.127Z,14.63
2022-11-01T07:26:11.738Z,14.10
2022-11-01T07:31:38.480Z,14.75
2022-11-01T07:37:00.633Z,14.93
2022-11-01T07:42:23.153Z,15.25
2022-11-01T07:47:45.361Z,13.10
2022-11-01T07:53:14.442Z,12.78
2022-11-01T07:58:36.670Z,13.88
2022-11-01T08:03:59.294Z,12.85
2022-11-01T08:09:22.539Z,14.58
2022-11-01T08:14:44.680Z,13.30
2022-11-01T08:20:07.610Z,14.18
2022-11-01T08:25:31.162Z,14.87
2022-11-01T08:30:55.478Z,14.78
2022-11-01T08:36:18.335Z,14.60
2022-11-01T08:41:40.595Z,14.83
2022-11-01T08:47:04.625Z,14.75
2022-11-01T08:52:28.874Z,15.35
2022-11-01T08:57:51.018Z,13.65
2022-11-01T09:03:14.771Z,14.47
2022-11-01T09:08:36.930Z,13.22
2022-11-01T09:13:59.242Z,13.32
2022-11-01T09:19:21.902Z,14.33
2022-11-01T09:24:45.187Z,19.87
2022-11-01T09:30:07.875Z,24.37
2022-11-01T09:35:30.699Z,22.15
2022-11-01T09:41:07.199Z,16.87
2022-11-01T09:46:34.748Z,15.40
2022-11-01T09:51:57.915Z,15.93
2022-11-01T09:57:29.592Z,15.10
2022-11-01T10:03:20.765Z,14.95
2022-11-01T10:14:36.198Z,16.87
2022-11-01T10:20:09.660Z,24.03
2022-11-01T10:25:44.947Z,18.13
2022-11-01T10:31:15.577Z,17.60
2022-11-01T10:36:46.383Z,17.50
2022-11-01T10:42:15.412Z,17.30
2022-11-01T10:47:39.100Z,18.70
2022-11-01T10:58:49.970Z,22.85
2022-11-01T11:04:17.197Z,22.37
2022-11-01T11:09:51.519Z,24.37
2022-11-01T11:15:20.057Z,23.77
2022-11-01T11:20:46.352Z,26.12
2022-11-01T11:26:17.227Z,24.95
2022-11-01T11:31:48.094Z,23.77
2022-11-01T11:37:15.140Z,22.58
2022-11-01T11:42:39.363Z,24.90
2022-11-01T11:48:03.640Z,24.32
2022-11-01T11:53:29.693Z,24.47
2022-11-01T11:58:58.315Z,24.92
2022-11-01T12:04:29.117Z,25.02
2022-11-01T12:10:04.026Z,26.87
2022-11-01T12:15:41.458Z,29.42
2022-11-01T12:21:06.302Z,32.13
2022-11-01T12:26:41.483Z,28.37
2022-11-01T12:32:26.125Z,28.10
2022-11-01T12:38:31.242Z,29.60
2022-11-01T12:44:21.035Z,29.73
2022-11-01T12:50:03.104Z,30.60
2022-11-01T12:55:44.387Z,38.97
2022-11-01T13:01:26.620Z,33.70
2022-11-01T13:12:46.860Z,34.30
2022-11-01T13:18:34.772Z,37.97
2022-11-01T13:24:07.698Z,37.63
2022-11-01T13:30:10.127Z,38.37
2022-11-01T13:36:11.708Z,37.60
2022-11-01T13:41:57.649Z,37.08
2022-11-01T13:47:55.690Z,39.17
2022-11-01T13:53:33.771Z,37.77
2022-11-01T13:58:56.479Z,39.37
2022-11-01T14:04:45.328Z,41.80
2022-11-01T14:10:11.429Z,39.03
2022-11-01T14:15:42.827Z,38.88
2022-11-01T14:21:11.954Z,41.08
2022-11-01T14:26:45.053Z,40.95
2022-11-01T14:32:10.657Z,36.95
2022-11-01T14:37:41.472Z,36.20
2022-11-01T14:43:09.123Z,35.50
2022-11-01T14:48:59.316Z,41.15
2022-11-01T14:54:57.639Z,36.53
2022-11-01T15:00:36.682Z,37.70
2022-11-01T15:11:40.376Z,37.87
2022-11-01T15:17:02.940Z,37.93
2022-11-01T15:22:34.202Z,36.93
2022-11-01T15:28:02.744Z,37.17
2022-11-01T15:33:40.177Z,37.57
2022-11-01T15:39:26.632Z,37.53
2022-11-01T15:44:50.093Z,40.35
2022-11-01T15:50:24.090Z,41.73
2022-11-01T15:55:50.894Z,41.85
2022-11-01T16:01:18.186Z,41.47
2022-11-01T16:06:57.848Z,43.95
2022-11-01T16:12:24.873Z,43.90
2022-11-01T16:18:00.204Z,43.83
2022-11-01T16:23:33.395Z,45.60
2022-11-01T16:28:58.099Z,51.63
2022-11-01T16:34:32.369Z,52.93
2022-11-01T16:39:54.679Z,51.57
2022-11-01T16:45:17.905Z,53.87
2022-11-01T16:50:40.059Z,56.30
2022-11-01T16:56:23.166Z,56.98
2022-11-01T17:01:35.879Z,58.97
2022-11-01T17:06:59.014Z,58.90
2022-11-01T17:12:22.323Z,60.70
2022-11-01T17:17:44.995Z,61.58
2022-11-01T17:23:09.305Z,60.43
2022-11-01T17:28:32.657Z,63.92
2022-11-01T17:33:55.047Z,65.97
2022-11-01T17:39:17.904Z,64.80
2022-11-01T17:44:40.609Z,66.37
2022-11-01T17:50:02.875Z,64.15
2022-11-01T17:55:26.127Z,64.72
2022-11-01T18:00:50.233Z,64.22
2022-11-01T18:06:16.928Z,64.60
2022-11-01T18:12:10.847Z,61.35
2022-11-01T18:18:02.885Z,62.43
2022-11-01T18:23:37.478Z,63.30
2022-11-01T18:29:10.466Z,62.03
2022-11-01T18:34:47.348Z,61.42
2022-11-01T18:46:23.330Z,60.13
2022-11-01T18:57:17.773Z,60.50
2022-11-01T19:02:41.548Z,56.88
2022-11-01T19:08:10.923Z,56.37
2022-11-01T19:13:40.481Z,58.52
2022-11-01T19:19:03.759Z,58.03
2022-11-01T19:24:40.088Z,58.10
2022-11-01T19:30:03.700Z,58.87
2022-11-01T19:35:29.128Z,59.40
2022-11-01T19:40:55.662Z,58.20
2022-11-01T19:46:18.856Z,55.23
2022-11-01T19:51:42.897Z,58.55
2022-11-01T19:57:06.620Z,57.30
2022-11-01T20:02:36.487Z,58.37
2022-11-01T20:08:00.454Z,57.35
2022-11-01T20:13:23.226Z,56.23
2022-11-01T20:18:45.554Z,56.47
2022-11-01T20:24:08.312Z,55.85
2022-11-01T20:29:30.506Z,54.50
2022-11-01T20:34:53.166Z,54.70
2022-11-01T20:40:15.690Z,53.87
2022-11-01T20:45:38.481Z,54.70
2022-11-01T20:51:01.398Z,56.98
2022-11-01T20:56:23.806Z,56.80
2022-11-01T21:01:46.147Z,55.00
2022-11-01T21:07:09.262Z,56.67
2022-11-01T21:13:01.172Z,54.27
2022-11-01T21:18:33.098Z,52.87
2022-11-01T21:23:57.803Z,50.43
2022-11-01T21:29:40.418Z,50.50
2022-11-01T21:35:09.792Z,52.30
2022-11-01T21:40:41.109Z,52.37
2022-11-01T21:46:04.853Z,51.33
2022-11-01T21:51:27.100Z,52.63
2022-11-01T21:56:49.253Z,53.20
2022-11-01T22:02:14.017Z,53.50
2022-11-01T22:07:36.426Z,51.63
2022-11-01T22:13:02.880Z,50.80
2022-11-01T22:18:25.106Z,49.67
2022-11-01T22:23:46.342Z,52.08
2022-11-01T22:29:08.665Z,51.50
2022-11-01T22:34:31.234Z,50.33
2022-11-01T22:39:53.921Z,51.77
2022-11-01T22:45:23.571Z,48.93
2022-11-01T22:50:47.678Z,51.27
2022-11-01T22:56:12.077Z,49.63
2022-11-01T23:01:36.116Z,50.98
2022-11-01T23:07:02.082Z,49.17
2022-11-01T23:12:46.639Z,49.20
2022-11-01T23:18:32.413Z,50.00
2022-11-01T23:23:57.634Z,46.68
2022-11-01T23:29:20.929Z,49.27
2022-11-01T23:34:44.723Z,49.60
2022-11-01T23:40:07.035Z,48.47
2022-11-01T23:45:39.375Z,47.30
2022-11-01T23:51:03.155Z,46.70
2022-11-01T23:56:27.566Z,47.93
